Time;durP1;ratioP1;P1;durP2;ratioP2;P2;SDS_P1;SDS_P2;PMS_P1;PMS_P2;Temp;Humidity;BMP_temperature;BMP_pressure;BME280_temperature;BME280_humidity;BME280_pressure;Samples;Min_cycle;Max_cycle;Signal;HPM_P1;HPM_P2
2024/04/10 00:00:38;;;;;;;0.40;0.30;;;;;;;;;;2251357;26;20777;-87
2024/04/10 00:01:40;;;;;;;1.05;0.60;;;;;;;;;;2255028;26;20002;-86
2024/04/10 00:02:44;;;;;;;0.63;0.20;;;;;;;;;;2254861;26;20006;-85
2024/04/10 00:03:48;;;;;;;1.30;0.30;;;;;;;;;;2250479;26;20017;-86
2024/04/10 00:04:51;;;;;;;1.50;0.40;;;;;;;;;;2254086;26;20038;-87
2024/04/10 00:05:59;;;;;;;2.08;0.28;;;;;;;;;;2252037;26;20007;-87
2024/04/10 00:07:03;;;;;;;1.65;0.65;;;;;;;;;;2254938;26;20015;-85
2024/04/10 00:08:04;;;;;;;0.82;0.30;;;;;;;;;;2254066;26;20010;-87
2024/04/10 00:09:06;;;;;;;1.35;0.43;;;;;;;;;;2256417;26;20006;-86
2024/04/10 00:10:07;;;;;;;0.60;0.22;;;;;;;;;;2253026;26;20450;-88
2024/04/10 00:11:11;;;;;;;0.50;0.30;;;;;;;;;;2270165;26;20006;-86
2024/04/10 00:12:13;;;;;;;0.30;0.20;;;;;;;;;;2267302;26;20013;-87
2024/04/10 00:13:14;;;;;;;1.27;0.20;;;;;;;;;;2262417;26;20007;-87
2024/04/10 00:14:18;;;;;;;0.75;0.40;;;;;;;;;;2252359;26;20022;-86
2024/04/10 00:15:19;;;;;;;1.42;0.30;;;;;;;;;;2254467;26;19999;-87
2024/04/10 00:16:20;;;;;;;2.45;0.25;;;;;;;;;;2253736;26;20003;-88
2024/04/10 00:17:22;;;;;;;0.98;0.20;;;;;;;;;;2254311;26;20022;-86
2024/04/10 00:18:26;;;;;;;0.30;0.20;;;;;;;;;;2253017;26;20014;-86
2024/04/10 00:19:29;;;;;;;1.25;0.22;;;;;;;;;;2252077;26;19999;-87
2024/04/10 00:20:31;;;;;;;1.33;0.30;;;;;;;;;;2252565;26;20014;-86
2024/04/10 00:21:35;;;;;;;0.20;0.15;;;;;;;;;;2254478;26;20006;-88
2024/04/10 00:22:36;;;;;;;0.70;0.20;;;;;;;;;;2252070;26;20003;-86
2024/04/10 00:23:37;;;;;;;1.75;0.30;;;;;;;;;;2252423;26;20014;-86
2024/04/10 00:24:39;;;;;;;0.50;0.20;;;;;;;;;;2254000;26;20010;-86
2024/04/10 00:25:43;;;;;;;0.40;0.20;;;;;;;;;;2249194;26;20022;-85
2024/04/10 00:26:44;;;;;;;0.28;0.10;;;;;;;;;;2247351;26;20087;-88
2024/04/10 00:27:46;;;;;;;0.20;0.10;;;;;;;;;;2249428;26;20144;-88
2024/04/10 00:28:50;;;;;;;1.30;0.13;;;;;;;;;;2254335;26;20007;-89
2024/04/10 00:29:51;;;;;;;0.55;0.20;;;;;;;;;;2250827;26;20003;-87
2024/04/10 00:30:52;;;;;;;1.65;0.20;;;;;;;;;;2245303;26;20011;-87
2024/04/10 00:31:53;;;;;;;1.95;0.22;;;;;;;;;;2254559;26;20528;-86
2024/04/10 00:32:57;;;;;;;0.50;0.20;;;;;;;;;;2254377;26;20123;-87
2024/04/10 00:33:58;;;;;;;0.55;0.40;;;;;;;;;;2246048;26;20010;-86
2024/04/10 00:35:03;;;;;;;1.60;0.10;;;;;;;;;;2253749;26;20445;-86
2024/04/10 00:36:04;;;;;;;0.65;0.10;;;;;;;;;;2252000;26;20372;-87
2024/04/10 00:37:08;;;;;;;0.00;0.00;;;;;;;;;;2252517;26;20018;-88
2024/04/10 00:38:12;;;;;;;0.98;0.10;;;;;;;;;;2252387;26;19999;-88
2024/04/10 00:39:13;;;;;;;0.10;0.10;;;;;;;;;;2250134;26;20007;-87
2024/04/10 00:40:15;;;;;;;0.60;0.10;;;;;;;;;;2248806;26;20007;-87
2024/04/10 00:41:18;;;;;;;0.30;0.10;;;;;;;;;;2253337;26;20053;-87
2024/04/10 00:42:22;;;;;;;0.85;0.00;;;;;;;;;;2254871;26;20072;-86
2024/04/10 00:43:23;;;;;;;2.53;0.20;;;;;;;;;;2252764;26;20055;-87
2024/04/10 00:44:24;;;;;;;0.40;0.10;;;;;;;;;;2246830;26;20026;-87
2024/04/10 00:45:28;;;;;;;0.38;0.10;;;;;;;;;;2253815;26;20007;-88
2024/04/10 00:46:29;;;;;;;0.85;0.10;;;;;;;;;;2252414;26;20344;-86
2024/04/10 00:47:31;;;;;;;0.22;0.10;;;;;;;;;;2246200;26;20081;-85
2024/04/10 00:48:33;;;;;;;1.65;0.20;;;;;;;;;;2251231;26;20007;-87
2024/04/10 00:49:36;;;;;;;1.45;0.10;;;;;;;;;;2251440;26;20019;-87
2024/04/10 00:50:41;;;;;;;0.43;0.10;;;;;;;;;;2250854;26;20383;-87
2024/04/10 00:51:43;;;;;;;0.90;0.10;;;;;;;;;;2243736;26;20018;-86
2024/04/10 00:52:44;;;;;;;0.20;0.10;;;;;;;;;;2250653;26;20380;-87
2024/04/10 00:53:48;;;;;;;0.75;0.10;;;;;;;;;;2251963;26;21302;-86
2024/04/10 00:54:50;;;;;;;0.13;0.10;;;;;;;;;;2246834;26;20480;-87
2024/04/10 00:55:51;;;;;;;1.65;0.20;;;;;;;;;;2252204;26;20003;-86
2024/04/10 00:56:53;;;;;;;0.38;0.17;;;;;;;;;;2253534;26;20013;-86
2024/04/10 00:57:54;;;;;;;0.20;0.10;;;;;;;;;;2252008;26;20652;-87
2024/04/10 00:59:00;;;;;;;5.38;0.10;;;;;;;;;;2252141;26;20100;-86
2024/04/10 01:00:01;;;;;;;0.35;0.10;;;;;;;;;;2250246;26;20017;-85
2024/04/10 01:01:03;;;;;;;0.10;0.10;;;;;;;;;;2253810;26;20007;-85
2024/04/10 01:02:08;;;;;;;0.57;0.20;;;;;;;;;;2253393;26;20018;-87
2024/04/10 01:03:10;;;;;;;1.25;0.00;;;;;;;;;;2251937;26;20039;-86
2024/04/10 01:04:11;;;;;;;0.32;0.10;;;;;;;;;;2252959;26;20027;-85
2024/04/10 01:05:15;;;;;;;1.55;0.10;;;;;;;;;;2251382;26;20011;-86
2024/04/10 01:06:18;;;;;;;0.22;0.08;;;;;;;;;;2252275;26;20091;-84
2024/04/10 01:07:20;;;;;;;0.50;0.25;;;;;;;;;;2253265;26;20134;-87
2024/04/10 01:08:21;;;;;;;0.13;0.05;;;;;;;;;;2251303;26;20022;-87
2024/04/10 01:09:25;;;;;;;0.22;0.10;;;;;;;;;;2247309;26;20015;-88
2024/04/10 01:10:26;;;;;;;4.25;0.10;;;;;;;;;;2249952;26;20050;-86
2024/04/10 01:11:27;;;;;;;1.35;0.10;;;;;;;;;;2250063;26;20003;-86
2024/04/10 01:12:33;;;;;;;2.05;0.10;;;;;;;;;;2254348;26;20010;-86
2024/04/10 01:13:35;;;;;;;2.28;0.20;;;;;;;;;;2249210;26;20031;-85
2024/04/10 01:14:36;;;;;;;0.10;0.00;;;;;;;;;;2252871;26;20018;-86
2024/04/10 01:15:40;;;;;;;1.00;0.10;;;;;;;;;;2253387;26;20002;-86
2024/04/10 01:16:41;;;;;;;0.43;0.08;;;;;;;;;;2252325;26;20013;-85
2024/04/10 01:17:43;;;;;;;0.68;0.28;;;;;;;;;;2252114;26;20004;-86
2024/04/10 01:18:46;;;;;;;0.63;0.08;;;;;;;;;;2252554;26;20022;-86
2024/04/10 01:19:48;;;;;;;0.38;0.08;;;;;;;;;;2250802;26;20013;-85
2024/04/10 01:20:49;;;;;;;2.47;0.10;;;;;;;;;;2254181;26;20022;-86
2024/04/10 01:21:56;;;;;;;1.13;0.10;;;;;;;;;;2253401;26;20007;-85
2024/04/10 01:23:02;;;;;;;0.50;0.50;;;;;;;;;;2252833;26;20325;-87
2024/04/10 01:24:04;;;;;;;0.75;0.20;;;;;;;;;;2251290;26;20015;-85
2024/04/10 01:25:05;;;;;;;0.95;0.30;;;;;;;;;;2252964;26;20014;-86
2024/04/10 01:26:06;;;;;;;0.63;0.30;;;;;;;;;;2253194;26;20015;-85
2024/04/10 01:27:10;;;;;;;0.10;0.08;;;;;;;;;;2250931;26;20434;-85
2024/04/10 01:28:12;;;;;;;0.93;0.30;;;;;;;;;;2251013;26;20003;-85
2024/04/10 01:29:13;;;;;;;0.30;0.10;;;;;;;;;;2253071;26;20018;-85
2024/04/10 01:30:14;;;;;;;0.30;0.30;;;;;;;;;;2253874;26;20897;-86
2024/04/10 01:31:18;;;;;;;0.40;0.10;;;;;;;;;;2248113;26;20019;-85
2024/04/10 01:32:19;;;;;;;0.25;0.10;;;;;;;;;;2251786;26;20003;-86
2024/04/10 01:33:20;;;;;;;0.30;0.03;;;;;;;;;;2252976;26;20003;-84
2024/04/10 01:34:24;;;;;;;0.85;0.20;;;;;;;;;;2250779;26;20002;-85
2024/04/10 01:35:26;;;;;;;0.20;0.10;;;;;;;;;;2248955;26;20354;-83
2024/04/10 01:36:27;;;;;;;0.22;0.13;;;;;;;;;;2253018;26;20018;-85
2024/04/10 01:37:28;;;;;;;0.40;0.13;;;;;;;;;;2248126;26;20078;-85
2024/04/10 01:38:35;;;;;;;1.63;0.10;;;;;;;;;;2253648;26;20043;-84
2024/04/10 01:39:36;;;;;;;0.65;0.10;;;;;;;;;;2253195;26;20053;-85
2024/04/10 01:40:37;;;;;;;0.20;0.10;;;;;;;;;;2250918;26;20022;-84
2024/04/10 01:41:38;;;;;;;0.20;0.10;;;;;;;;;;2253186;26;20069;-85
2024/04/10 01:42:46;;;;;;;0.17;0.08;;;;;;;;;;2252923;26;20003;-85
2024/04/10 01:43:47;;;;;;;1.55;0.20;;;;;;;;;;2251907;26;19995;-84
2024/04/10 01:44:48;;;;;;;0.20;0.13;;;;;;;;;;2248658;26;21095;-86
2024/04/10 01:45:52;;;;;;;0.10;0.00;;;;;;;;;;2252388;26;20791;-84
2024/04/10 01:46:53;;;;;;;0.22;0.00;;;;;;;;;;2251234;26;20058;-85
2024/04/10 01:47:55;;;;;;;0.88;0.08;;;;;;;;;;2251912;26;20026;-85
2024/04/10 01:48:56;;;;;;;0.60;0.05;;;;;;;;;;2249845;26;20018;-85
2024/04/10 01:49:57;;;;;;;0.90;0.10;;;;;;;;;;2253251;26;20022;-86
2024/04/10 01:51:01;;;;;;;1.27;0.10;;;;;;;;;;2250608;26;20014;-85
2024/04/10 01:52:02;;;;;;;0.10;0.03;;;;;;;;;;2253045;26;20017;-84
2024/04/10 01:53:04;;;;;;;0.20;0.03;;;;;;;;;;2253984;26;20033;-85
2024/04/10 01:54:08;;;;;;;0.10;0.05;;;;;;;;;;2254619;26;20055;-87
2024/04/10 01:55:12;;;;;;;0.60;0.13;;;;;;;;;;2250332;26;20100;-84
2024/04/10 01:56:13;;;;;;;1.40;0.10;;;;;;;;;;2254660;26;20075;-85
2024/04/10 01:57:15;;;;;;;0.17;0.10;;;;;;;;;;2254281;26;20055;-86
2024/04/10 01:58:16;;;;;;;0.10;0.10;;;;;;;;;;2253259;26;20002;-87
2024/04/10 01:59:21;;;;;;;0.90;0.10;;;;;;;;;;2252774;26;20173;-87
2024/04/10 02:00:24;;;;;;;0.95;0.00;;;;;;;;;;2252257;26;20014;-86
2024/04/10 02:01:25;;;;;;;1.10;0.10;;;;;;;;;;2253593;26;20003;-86
2024/04/10 02:02:27;;;;;;;1.52;0.10;;;;;;;;;;2255885;26;20096;-86
2024/04/10 02:03:31;;;;;;;0.50;0.20;;;;;;;;;;2254246;26;20013;-87
2024/04/10 02:04:33;;;;;;;0.30;0.10;;;;;;;;;;2252083;26;20540;-86
2024/04/10 02:05:35;;;;;;;0.10;0.10;;;;;;;;;;2254423;26;20356;-86
2024/04/10 02:06:39;;;;;;;0.88;0.20;;;;;;;;;;2253015;26;20341;-83
2024/04/10 02:07:41;;;;;;;1.08;0.10;;;;;;;;;;2255385;26;19999;-85
2024/04/10 02:08:42;;;;;;;0.15;0.10;;;;;;;;;;2254028;26;20069;-86
2024/04/10 02:09:46;;;;;;;0.30;0.10;;;;;;;;;;2255226;26;19999;-87
2024/04/10 02:10:51;;;;;;;0.52;0.43;;;;;;;;;;2255611;26;20064;-85
2024/04/10 02:11:52;;;;;;;1.65;0.20;;;;;;;;;;2253275;26;20010;-88
2024/04/10 02:12:54;;;;;;;0.63;0.10;;;;;;;;;;2254459;26;20007;-86
2024/04/10 02:13:55;;;;;;;0.85;0.10;;;;;;;;;;2254002;26;20905;-85
2024/04/10 02:14:59;;;;;;;0.70;0.00;;;;;;;;;;2253201;26;20014;-86
2024/04/10 02:16:00;;;;;;;0.43;0.10;;;;;;;;;;2254064;26;19999;-86
2024/04/10 02:17:01;;;;;;;0.82;0.10;;;;;;;;;;2251228;26;20044;-86
2024/04/10 02:18:04;;;;;;;0.17;0.00;;;;;;;;;;2247189;26;20016;-86
2024/04/10 02:19:08;;;;;;;1.67;0.00;;;;;;;;;;2252940;26;19999;-87
2024/04/10 02:20:10;;;;;;;0.25;0.00;;;;;;;;;;2254067;26;20010;-86
2024/04/10 02:21:11;;;;;;;0.00;0.00;;;;;;;;;;2255481;26;20011;-86
2024/04/10 02:22:12;;;;;;;0.13;0.03;;;;;;;;;;2254078;26;20003;-86
2024/04/10 02:23:16;;;;;;;0.00;0.00;;;;;;;;;;2252565;26;20018;-87
2024/04/10 02:24:17;;;;;;;0.10;0.00;;;;;;;;;;2254624;26;19999;-86
2024/04/10 02:25:21;;;;;;;0.00;0.00;;;;;;;;;;2255889;26;20003;-86
2024/04/10 02:26:22;;;;;;;0.10;0.00;;;;;;;;;;2253280;26;20056;-86
2024/04/10 02:27:26;;;;;;;0.22;0.17;;;;;;;;;;2254161;26;20025;-86
2024/04/10 02:28:28;;;;;;;2.45;0.20;;;;;;;;;;2253208;26;20006;-85
2024/04/10 02:29:29;;;;;;;1.35;0.10;;;;;;;;;;2255150;26;20017;-86
2024/04/10 02:30:33;;;;;;;0.10;0.10;;;;;;;;;;2255664;26;20022;-86
2024/04/10 02:31:34;;;;;;;0.10;0.10;;;;;;;;;;2254160;26;20410;-87
2024/04/10 02:32:35;;;;;;;0.00;0.00;;;;;;;;;;2254385;26;20026;-87
2024/04/10 02:33:37;;;;;;;0.47;0.15;;;;;;;;;;2253351;26;20017;-88
2024/04/10 02:34:41;;;;;;;0.45;0.10;;;;;;;;;;2255047;26;20006;-86
2024/04/10 02:35:42;;;;;;;0.45;0.10;;;;;;;;;;2255478;26;20060;-85
2024/04/10 02:36:43;;;;;;;0.57;0.05;;;;;;;;;;2252995;26;20007;-86
2024/04/10 02:37:45;;;;;;;1.55;0.10;;;;;;;;;;2253845;26;20006;-86
2024/04/10 02:38:48;;;;;;;0.43;0.10;;;;;;;;;;2255660;26;20017;-86
2024/04/10 02:39:50;;;;;;;0.10;0.10;;;;;;;;;;2254567;26;20017;-86
2024/04/10 02:40:54;;;;;;;0.10;0.10;;;;;;;;;;2255255;26;20861;-87
2024/04/10 02:41:57;;;;;;;0.35;0.00;;;;;;;;;;2256812;26;20003;-87
2024/04/10 02:43:04;;;;;;;2.53;0.50;;;;;;;;;;2254094;26;20062;-86
2024/04/10 02:44:05;;;;;;;0.10;0.10;;;;;;;;;;2249681;26;20015;-86
2024/04/10 02:45:07;;;;;;;0.80;0.10;;;;;;;;;;2256023;26;20055;-87
2024/04/10 02:46:15;;;;;;;1.65;0.13;;;;;;;;;;2256297;26;20842;-87
2024/04/10 02:47:16;;;;;;;0.30;0.10;;;;;;;;;;2269458;26;20012;-88
2024/04/10 02:48:18;;;;;;;1.30;0.10;;;;;;;;;;2269009;26;20474;-85
2024/04/10 02:49:22;;;;;;;1.75;0.13;;;;;;;;;;2269178;26;20002;-87
2024/04/10 02:50:23;;;;;;;0.00;0.00;;;;;;;;;;2269200;26;20464;-87
2024/04/10 02:51:24;;;;;;;0.00;0.00;;;;;;;;;;2266296;26;20006;-87
2024/04/10 02:52:25;;;;;;;3.30;0.00;;;;;;;;;;2263959;26;20026;-87
2024/04/10 02:53:26;;;;;;;0.00;0.00;;;;;;;;;;2253425;26;20003;-87
2024/04/10 02:54:30;;;;;;;0.25;0.10;;;;;;;;;;2255664;26;20007;-86
2024/04/10 02:55:32;;;;;;;0.60;0.10;;;;;;;;;;2253840;26;19999;-87
2024/04/10 02:56:36;;;;;;;1.35;0.10;;;;;;;;;;2255209;26;20035;-87
2024/04/10 02:57:39;;;;;;;0.63;0.20;;;;;;;;;;2255675;26;20028;-87
2024/04/10 02:58:41;;;;;;;0.17;0.08;;;;;;;;;;2254871;26;20073;-88
2024/04/10 02:59:42;;;;;;;0.77;0.15;;;;;;;;;;2254278;26;20003;-87
2024/04/10 03:00:44;;;;;;;1.50;0.13;;;;;;;;;;2255382;26;20030;-87
2024/04/10 03:01:48;;;;;;;0.25;0.10;;;;;;;;;;2252118;26;20026;-86
2024/04/10 03:02:50;;;;;;;0.85;0.10;;;;;;;;;;2251940;26;20013;-86
2024/04/10 03:03:51;;;;;;;0.65;0.20;;;;;;;;;;2254353;26;20014;-87
2024/04/10 03:04:55;;;;;;;0.08;0.00;;;;;;;;;;2263410;26;20049;-87
2024/04/10 03:06:00;;;;;;;2.05;0.10;;;;;;;;;;2264829;26;20033;-87
2024/04/10 03:07:03;;;;;;;0.60;0.10;;;;;;;;;;2268389;26;20002;-89
2024/04/10 03:08:05;;;;;;;0.20;0.05;;;;;;;;;;2251530;26;20345;-89
2024/04/10 03:09:10;;;;;;;0.43;0.10;;;;;;;;;;2255874;26;19999;-88
2024/04/10 03:10:12;;;;;;;0.40;0.15;;;;;;;;;;2254333;26;19999;-88
2024/04/10 03:11:14;;;;;;;0.98;0.17;;;;;;;;;;2271604;26;20034;-87
2024/04/10 03:12:20;;;;;;;0.20;0.10;;;;;;;;;;2270663;26;20476;-87
2024/04/10 03:13:21;;;;;;;0.55;0.22;;;;;;;;;;2259647;26;20479;-87
2024/04/10 03:14:23;;;;;;;1.80;0.20;;;;;;;;;;2255392;26;24309;-86
2024/04/10 03:15:26;;;;;;;0.80;0.20;;;;;;;;;;2250325;26;20007;-88
2024/04/10 03:16:28;;;;;;;2.20;0.35;;;;;;;;;;2258344;26;24339;-87
2024/04/10 03:17:29;;;;;;;1.25;0.10;;;;;;;;;;2270823;26;20006;-88
2024/04/10 03:18:31;;;;;;;0.30;0.10;;;;;;;;;;2269274;26;20021;-87
2024/04/10 03:19:35;;;;;;;0.60;0.20;;;;;;;;;;2262060;26;20007;-88
2024/04/10 03:20:37;;;;;;;3.40;0.47;;;;;;;;;;2250684;26;20076;-88
2024/04/10 03:21:38;;;;;;;0.68;0.30;;;;;;;;;;2254601;26;20010;-86
2024/04/10 03:22:39;;;;;;;0.30;0.10;;;;;;;;;;2254289;26;20007;-87
2024/04/10 03:23:43;;;;;;;0.75;0.13;;;;;;;;;;2254808;26;20421;-87
2024/04/10 03:24:44;;;;;;;0.13;0.10;;;;;;;;;;2255324;26;19999;-86
2024/04/10 03:25:45;;;;;;;0.10;0.10;;;;;;;;;;2254183;26;20007;-87
2024/04/10 03:26:49;;;;;;;1.38;0.20;;;;;;;;;;2255911;26;20003;-87
2024/04/10 03:27:53;;;;;;;1.23;0.20;;;;;;;;;;2254370;26;20003;-87
2024/04/10 03:28:54;;;;;;;2.70;0.20;;;;;;;;;;2254770;26;20007;-87
2024/04/10 03:29:58;;;;;;;3.13;0.10;;;;;;;;;;2255014;26;20006;-89
2024/04/10 03:31:00;;;;;;;1.20;0.10;;;;;;;;;;2251694;26;19999;-87
2024/04/10 03:32:01;;;;;;;2.25;0.13;;;;;;;;;;2243074;26;20004;-88
2024/04/10 03:33:03;;;;;;;1.75;0.13;;;;;;;;;;2253340;26;20460;-88
2024/04/10 03:34:04;;;;;;;0.32;0.20;;;;;;;;;;2255040;26;20903;-86
2024/04/10 03:35:08;;;;;;;0.80;0.20;;;;;;;;;;2270532;26;20018;-86
2024/04/10 03:36:09;;;;;;;0.68;0.20;;;;;;;;;;2267706;26;20070;-87
2024/04/10 03:37:10;;;;;;;3.03;0.30;;;;;;;;;;2265580;26;20002;-86
2024/04/10 03:38:11;;;;;;;0.95;0.13;;;;;;;;;;2270807;26;20014;-87
2024/04/10 03:39:16;;;;;;;4.97;0.30;;;;;;;;;;2267695;26;20018;-87
2024/04/10 03:40:17;;;;;;;1.00;0.20;;;;;;;;;;2263279;26;20881;-88
2024/04/10 03:41:19;;;;;;;1.77;0.20;;;;;;;;;;2267832;26;20022;-88
2024/04/10 03:42:20;;;;;;;1.08;0.35;;;;;;;;;;2267472;26;20017;-87
2024/04/10 03:43:27;;;;;;;2.08;0.20;;;;;;;;;;2269576;26;20017;-88
2024/04/10 03:44:29;;;;;;;1.35;0.28;;;;;;;;;;2268135;26;20239;-86
2024/04/10 03:45:33;;;;;;;1.33;0.30;;;;;;;;;;2269711;26;20003;-88
2024/04/10 03:46:34;;;;;;;0.70;0.13;;;;;;;;;;2251462;26;20097;-85
2024/04/10 03:47:35;;;;;;;0.75;0.13;;;;;;;;;;2253626;26;20007;-88
2024/04/10 03:48:39;;;;;;;0.80;0.15;;;;;;;;;;2254333;26;20022;-87
2024/04/10 03:49:41;;;;;;;0.68;0.22;;;;;;;;;;2252929;26;20004;-88
2024/04/10 03:50:42;;;;;;;0.93;0.10;;;;;;;;;;2254799;26;20114;-87
2024/04/10 03:51:46;;;;;;;1.85;0.30;;;;;;;;;;2251716;26;20014;-87
2024/04/10 03:52:47;;;;;;;1.15;0.25;;;;;;;;;;2265946;26;20035;-88
2024/04/10 03:53:48;;;;;;;0.30;0.10;;;;;;;;;;2270273;26;20006;-89
2024/04/10 03:54:50;;;;;;;0.68;0.20;;;;;;;;;;2270131;26;20017;-88
2024/04/10 03:55:54;;;;;;;1.27;0.68;;;;;;;;;;2258171;26;20464;-89
2024/04/10 03:56:55;;;;;;;0.82;0.15;;;;;;;;;;2254804;26;20038;-87
2024/04/10 03:57:57;;;;;;;1.42;0.20;;;;;;;;;;2247674;26;20476;-87
2024/04/10 03:59:03;;;;;;;2.10;0.30;;;;;;;;;;2261294;26;20052;-86
2024/04/10 04:00:05;;;;;;;0.50;0.20;;;;;;;;;;2267481;26;20006;-86
2024/04/10 04:01:07;;;;;;;3.85;0.20;;;;;;;;;;2267949;26;19999;-89
2024/04/10 04:02:09;;;;;;;0.68;0.20;;;;;;;;;;2254331;26;20023;-87
2024/04/10 04:03:10;;;;;;;1.98;0.20;;;;;;;;;;2254827;26;20006;-86
2024/04/10 04:04:14;;;;;;;0.57;0.28;;;;;;;;;;2254543;26;20003;-84
2024/04/10 04:05:15;;;;;;;3.03;0.38;;;;;;;;;;2251718;26;20050;-85
2024/04/10 04:06:16;;;;;;;0.75;0.17;;;;;;;;;;2254724;26;20017;-86
2024/04/10 04:07:17;;;;;;;0.85;0.10;;;;;;;;;;2254683;26;20018;-87
2024/04/10 04:08:22;;;;;;;1.10;0.20;;;;;;;;;;2254454;26;20023;-87
2024/04/10 04:09:23;;;;;;;0.20;0.10;;;;;;;;;;2251040;26;20435;-88
2024/04/10 04:10:24;;;;;;;0.85;0.20;;;;;;;;;;2250677;26;20011;-87
2024/04/10 04:11:28;;;;;;;1.00;0.35;;;;;;;;;;2254541;26;20039;-88
2024/04/10 04:12:30;;;;;;;2.22;0.60;;;;;;;;;;2251506;26;20007;-88
2024/04/10 04:13:31;;;;;;;1.77;0.22;;;;;;;;;;2253886;26;20014;-87
2024/04/10 04:14:35;;;;;;;2.95;0.13;;;;;;;;;;2254897;26;20018;-88
2024/04/10 04:15:40;;;;;;;1.83;0.32;;;;;;;;;;2249995;26;20357;-87
2024/04/10 04:16:41;;;;;;;2.20;0.28;;;;;;;;;;2253265;26;19999;-88
2024/04/10 04:17:43;;;;;;;1.25;0.30;;;;;;;;;;2254745;26;20013;-88
2024/04/10 04:18:44;;;;;;;2.20;0.40;;;;;;;;;;2246811;26;20019;-88
2024/04/10 04:19:49;;;;;;;1.50;0.25;;;;;;;;;;2254477;26;20013;-83
2024/04/10 04:20:50;;;;;;;1.77;0.30;;;;;;;;;;2252473;26;20039;-87
2024/04/10 04:21:52;;;;;;;0.43;0.10;;;;;;;;;;2251851;26;20472;-87
2024/04/10 04:22:53;;;;;;;1.85;0.22;;;;;;;;;;2251674;26;20041;-87
2024/04/10 04:23:57;;;;;;;3.10;0.28;;;;;;;;;;2252142;26;20010;-88
2024/04/10 04:24:58;;;;;;;0.55;0.10;;;;;;;;;;2252156;26;20083;-87
2024/04/10 04:25:59;;;;;;;3.63;0.40;;;;;;;;;;2251597;26;20003;-88
2024/04/10 04:27:00;;;;;;;1.27;0.20;;;;;;;;;;2253689;26;20014;-87
2024/04/10 04:28:04;;;;;;;1.27;0.40;;;;;;;;;;2245063;26;20003;-87
2024/04/10 04:29:05;;;;;;;0.93;0.20;;;;;;;;;;2253383;26;20003;-87
2024/04/10 04:30:12;;;;;;;0.60;0.22;;;;;;;;;;2254556;26;20002;-90
2024/04/10 04:31:18;;;;;;;0.75;0.20;;;;;;;;;;2254472;26;20007;-88
2024/04/10 04:32:19;;;;;;;0.90;0.22;;;;;;;;;;2265316;26;20006;-88
2024/04/10 04:33:20;;;;;;;1.67;0.10;;;;;;;;;;2268964;26;20002;-87
2024/04/10 04:34:21;;;;;;;0.22;0.17;;;;;;;;;;2263174;26;20462;-87
2024/04/10 04:35:25;;;;;;;1.17;0.30;;;;;;;;;;2255309;26;20018;-88
2024/04/10 04:36:26;;;;;;;1.58;0.20;;;;;;;;;;2247418;26;20027;-88
2024/04/10 04:37:28;;;;;;;2.50;0.30;;;;;;;;;;2253439;26;20021;-89
2024/04/10 04:38:29;;;;;;;1.98;0.40;;;;;;;;;;2251459;26;20352;-88
2024/04/10 04:39:33;;;;;;;0.68;0.47;;;;;;;;;;2250507;26;20490;-88
2024/04/10 04:40:34;;;;;;;0.82;0.25;;;;;;;;;;2248553;26;20022;-87
2024/04/10 04:41:35;;;;;;;0.82;0.20;;;;;;;;;;2254901;26;20037;-86
2024/04/10 04:42:37;;;;;;;0.57;0.10;;;;;;;;;;2253926;26;20022;-87
2024/04/10 04:43:41;;;;;;;1.60;0.40;;;;;;;;;;2251988;26;20015;-87
2024/04/10 04:44:43;;;;;;;2.15;0.20;;;;;;;;;;2254911;26;19999;-87
2024/04/10 04:45:47;;;;;;;1.35;0.30;;;;;;;;;;2253825;26;20002;-87
2024/04/10 04:46:48;;;;;;;1.23;0.20;;;;;;;;;;2251712;26;20018;-88
2024/04/10 04:47:52;;;;;;;1.45;0.30;;;;;;;;;;2247927;26;20108;-89
2024/04/10 04:48:53;;;;;;;1.48;0.60;;;;;;;;;;2250131;26;20052;-87
2024/04/10 04:49:54;;;;;;;0.60;0.20;;;;;;;;;;2254043;26;20018;-87
2024/04/10 04:50:59;;;;;;;0.65;0.30;;;;;;;;;;2251426;26;20017;-88
2024/04/10 04:52:00;;;;;;;1.05;0.22;;;;;;;;;;2247151;26;20030;-88
2024/04/10 04:53:01;;;;;;;1.35;0.22;;;;;;;;;;2254303;26;20007;-87
2024/04/10 04:54:06;;;;;;;1.92;0.28;;;;;;;;;;2254596;26;20018;-86
2024/04/10 04:55:07;;;;;;;1.20;0.20;;;;;;;;;;2250185;26;20071;-87
2024/04/10 04:56:08;;;;;;;1.80;0.30;;;;;;;;;;2254441;26;20006;-89
2024/04/10 04:57:12;;;;;;;2.60;0.30;;;;;;;;;;2254361;26;20017;-87
2024/04/10 04:58:14;;;;;;;0.90;0.28;;;;;;;;;;2251601;26;20328;-87
2024/04/10 04:59:16;;;;;;;2.15;0.22;;;;;;;;;;2254349;26;20022;-88
2024/04/10 05:00:19;;;;;;;1.67;0.40;;;;;;;;;;2251993;26;20018;-87
2024/04/10 05:01:27;;;;;;;1.90;0.30;;;;;;;;;;2251921;26;20113;-87
2024/04/10 05:02:28;;;;;;;2.47;0.40;;;;;;;;;;2254179;26;19999;-88
2024/04/10 05:04:57;;;;;;;0.45;0.13;;;;;;;;;;2257701;26;20007;-87
2024/04/10 05:05:58;;;;;;;0.82;0.20;;;;;;;;;;2254319;26;20011;-88
2024/04/10 05:07:02;;;;;;;0.77;0.20;;;;;;;;;;2252811;26;20014;-87
2024/04/10 05:08:04;;;;;;;3.45;0.28;;;;;;;;;;2266396;26;20013;-87
2024/04/10 05:09:09;;;;;;;0.93;0.20;;;;;;;;;;2268661;26;20006;-87
2024/04/10 05:10:11;;;;;;;2.63;0.25;;;;;;;;;;2260557;26;20003;-88
2024/04/10 05:11:13;;;;;;;2.55;0.40;;;;;;;;;;2267409;26;20006;-89
2024/04/10 05:12:16;;;;;;;2.00;0.20;;;;;;;;;;2264997;26;20471;-86
2024/04/10 05:13:18;;;;;;;0.55;0.10;;;;;;;;;;2263550;26;20455;-87
2024/04/10 05:14:19;;;;;;;0.65;0.15;;;;;;;;;;2267893;26;20002;-88
2024/04/10 05:15:20;;;;;;;0.93;0.20;;;;;;;;;;2269251;26;20017;-88
2024/04/10 05:16:27;;;;;;;3.45;0.40;;;;;;;;;;2265261;26;20006;-87
2024/04/10 05:17:28;;;;;;;1.10;0.30;;;;;;;;;;2266132;26;20010;-88
2024/04/10 05:18:29;;;;;;;0.10;0.10;;;;;;;;;;2269713;26;20006;-86
2024/04/10 05:19:31;;;;;;;0.47;0.20;;;;;;;;;;2264916;26;20016;-87
2024/04/10 05:20:35;;;;;;;1.40;0.20;;;;;;;;;;2268411;26;20006;-88
2024/04/10 05:21:37;;;;;;;1.65;0.30;;;;;;;;;;2268378;26;19998;-88
2024/04/10 05:22:38;;;;;;;0.22;0.17;;;;;;;;;;2269028;26;20002;-87
2024/04/10 05:23:39;;;;;;;0.15;0.03;;;;;;;;;;2269305;26;20005;-87
2024/04/10 05:24:44;;;;;;;0.52;0.20;;;;;;;;;;2268988;26;20002;-89
2024/04/10 05:25:48;;;;;;;0.55;0.30;;;;;;;;;;2267332;26;20026;-87
2024/04/10 05:26:49;;;;;;;1.02;0.15;;;;;;;;;;2268894;26;20011;-86
2024/04/10 05:27:53;;;;;;;1.02;0.20;;;;;;;;;;2269401;26;20002;-89
2024/04/10 05:28:54;;;;;;;0.50;0.22;;;;;;;;;;2268225;26;20030;-87
2024/04/10 05:29:57;;;;;;;0.90;0.20;;;;;;;;;;2266260;26;20044;-87
2024/04/10 05:31:02;;;;;;;1.80;0.20;;;;;;;;;;2268214;26;20018;-88
2024/04/10 05:32:09;;;;;;;0.57;0.20;;;;;;;;;;2253323;26;20078;-88
2024/04/10 05:33:10;;;;;;;0.17;0.10;;;;;;;;;;2256511;26;20007;-88
2024/04/10 05:34:11;;;;;;;2.63;0.30;;;;;;;;;;2258954;26;20014;-88
2024/04/10 05:35:13;;;;;;;1.65;0.30;;;;;;;;;;2270947;26;20013;-90
2024/04/10 05:36:17;;;;;;;1.35;0.30;;;;;;;;;;2272364;26;20002;-88
2024/04/10 05:37:18;;;;;;;0.50;0.20;;;;;;;;;;2264847;26;19998;-88
2024/04/10 05:38:20;;;;;;;1.35;0.30;;;;;;;;;;2244582;26;20103;-87
2024/04/10 05:39:24;;;;;;;3.50;0.60;;;;;;;;;;2252088;26;20014;-87
2024/04/10 05:40:28;;;;;;;1.33;0.30;;;;;;;;;;2262430;26;20766;-88
2024/04/10 05:41:30;;;;;;;0.68;0.25;;;;;;;;;;2271421;26;20078;-88
2024/04/10 05:42:31;;;;;;;0.50;0.20;;;;;;;;;;2269498;26;20043;-88
2024/04/10 05:43:32;;;;;;;3.42;0.45;;;;;;;;;;2264233;26;20006;-87
2024/04/10 05:44:36;;;;;;;1.98;0.50;;;;;;;;;;2255045;26;20034;-88
2024/04/10 05:45:37;;;;;;;0.57;0.30;;;;;;;;;;2255529;26;20035;-88
2024/04/10 05:46:39;;;;;;;1.67;0.35;;;;;;;;;;2260150;26;20413;-87
2024/04/10 05:47:51;;;;;;;1.15;0.30;;;;;;;;;;2257391;26;20483;-88
2024/04/10 05:48:52;;;;;;;1.55;0.55;;;;;;;;;;2255977;26;20017;-88
2024/04/10 05:49:54;;;;;;;2.08;0.60;;;;;;;;;;2268082;26;19998;-88
2024/04/10 05:50:59;;;;;;;1.48;0.25;;;;;;;;;;2272500;26;20014;-87
2024/04/10 05:52:00;;;;;;;1.23;0.30;;;;;;;;;;2269695;26;20013;-87
2024/04/10 05:53:04;;;;;;;1.02;0.30;;;;;;;;;;2254406;26;20011;-87
2024/04/10 05:54:05;;;;;;;1.23;0.40;;;;;;;;;;2254788;26;20452;-87
2024/04/10 05:55:07;;;;;;;0.10;0.10;;;;;;;;;;2254066;26;20013;-88
2024/04/10 05:56:08;;;;;;;2.17;0.30;;;;;;;;;;2257032;26;20075;-89
2024/04/10 05:57:13;;;;;;;2.53;0.40;;;;;;;;;;2256023;26;20007;-88
2024/04/10 05:58:14;;;;;;;0.77;0.20;;;;;;;;;;2247488;26;19996;-88
2024/04/10 05:59:15;;;;;;;3.22;0.50;;;;;;;;;;2253928;26;20012;-87
2024/04/10 06:00:17;;;;;;;0.85;0.20;;;;;;;;;;2256045;26;20035;-87
2024/04/10 06:01:21;;;;;;;1.83;0.30;;;;;;;;;;2252793;26;20004;-88
2024/04/10 06:02:22;;;;;;;1.48;0.20;;;;;;;;;;2253491;26;20049;-86
2024/04/10 06:03:26;;;;;;;2.25;0.50;;;;;;;;;;2253557;26;20068;-87
2024/04/10 06:04:30;;;;;;;0.38;0.10;;;;;;;;;;2257202;26;20021;-87
2024/04/10 06:05:32;;;;;;;0.43;0.20;;;;;;;;;;2256142;26;20453;-87
2024/04/10 06:06:34;;;;;;;2.22;0.50;;;;;;;;;;2256110;26;20003;-87
2024/04/10 06:07:36;;;;;;;0.75;0.30;;;;;;;;;;2253764;26;20010;-88
2024/04/10 06:08:40;;;;;;;1.15;0.38;;;;;;;;;;2254782;26;20006;-87
2024/04/10 06:09:41;;;;;;;1.70;0.28;;;;;;;;;;2252083;26;20018;-87
2024/04/10 06:10:42;;;;;;;4.65;0.30;;;;;;;;;;2251923;26;20007;-90
2024/04/10 06:11:43;;;;;;;0.35;0.15;;;;;;;;;;2256680;26;20109;-88
2024/04/10 06:12:52;;;;;;;0.30;0.20;;;;;;;;;;2255184;26;20007;-87
2024/04/10 06:13:53;;;;;;;1.52;0.30;;;;;;;;;;2253758;26;19996;-87
2024/04/10 06:14:55;;;;;;;1.80;0.50;;;;;;;;;;2256287;26;20007;-88
2024/04/10 06:15:59;;;;;;;1.55;0.20;;;;;;;;;;2251939;26;20014;-89